sensor_id;sensor_type;location;lat;lon;timestamp;temperature;humidity
58409;DHT22;44202;52.730;6.470;2022-07-23T14:54:02;25.90;76.70
58409;DHT22;44202;52.730;6.470;2022-07-23T14:56:33;27.10;67.80
58409;DHT22;44202;52.730;6.470;2022-07-23T14:59:05;27.50;62.90
58409;DHT22;44202;52.730;6.470;2022-07-23T15:01:34;27.60;62.90
58409;DHT22;44202;52.730;6.470;2022-07-23T15:04:04;28.00;60.00
58409;DHT22;44202;52.730;6.470;2022-07-23T15:06:33;28.30;60.70
58409;DHT22;44202;52.730;6.470;2022-07-23T15:08:59;28.60;57.80
58409;DHT22;44202;52.730;6.470;2022-07-23T15:11:27;28.10;57.20
58409;DHT22;44202;52.730;6.470;2022-07-23T15:13:57;27.50;59.70
58409;DHT22;44202;52.730;6.470;2022-07-23T15:16:27;27.30;58.70
58409;DHT22;44202;52.730;6.470;2022-07-23T15:18:53;26.90;59.40
58409;DHT22;44202;52.730;6.470;2022-07-23T15:21:24;26.20;61.90
58409;DHT22;44202;52.730;6.470;2022-07-23T15:23:51;25.90;62.00
58409;DHT22;44202;52.730;6.470;2022-07-23T15:26:32;25.50;62.80
58409;DHT22;44202;52.730;6.470;2022-07-23T15:28:58;25.10;64.50
58409;DHT22;44202;52.730;6.470;2022-07-23T15:31:24;24.70;68.60
58409;DHT22;44202;52.730;6.470;2022-07-23T15:33:50;24.50;70.70
58409;DHT22;44202;52.730;6.470;2022-07-23T15:36:20;24.30;73.20
58409;DHT22;44202;52.730;6.470;2022-07-23T15:38:46;24.10;75.40
58409;DHT22;44202;52.730;6.470;2022-07-23T15:41:12;24.00;79.40
58409;DHT22;44202;52.730;6.470;2022-07-23T15:43:37;24.10;77.90
58409;DHT22;44202;52.730;6.470;2022-07-23T15:46:04;24.30;82.10
58409;DHT22;44202;52.730;6.470;2022-07-23T15:48:30;25.10;89.60
58409;DHT22;44202;52.730;6.470;2022-07-23T15:50:56;26.40;67.90
58409;DHT22;44202;52.730;6.470;2022-07-23T15:53:22;27.40;61.40
58409;DHT22;44202;52.730;6.470;2022-07-23T15:55:48;27.70;62.20
58409;DHT22;44202;52.730;6.470;2022-07-23T15:58:14;28.10;58.70
58409;DHT22;44202;52.730;6.470;2022-07-23T16:00:40;28.60;59.70
58409;DHT22;44202;52.730;6.470;2022-07-23T16:03:06;29.20;58.10
58409;DHT22;44202;52.730;6.470;2022-07-23T16:05:31;29.70;57.80
58409;DHT22;44202;52.730;6.470;2022-07-23T16:08:02;30.10;54.40
58409;DHT22;44202;52.730;6.470;2022-07-23T16:10:28;30.70;52.60
58409;DHT22;44202;52.730;6.470;2022-07-23T16:12:53;31.10;52.30
58409;DHT22;44202;52.730;6.470;2022-07-23T16:15:19;31.40;50.20
58409;DHT22;44202;52.730;6.470;2022-07-23T16:17:45;31.50;48.90
58409;DHT22;44202;52.730;6.470;2022-07-23T16:20:11;31.30;49.50
58409;DHT22;44202;52.730;6.470;2022-07-23T16:22:36;31.20;49.90
58409;DHT22;44202;52.730;6.470;2022-07-23T16:25:04;31.10;48.10
58409;DHT22;44202;52.730;6.470;2022-07-23T16:27:34;31.00;48.40
58409;DHT22;44202;52.730;6.470;2022-07-23T16:30:00;31.10;49.50
58409;DHT22;44202;52.730;6.470;2022-07-23T16:32:26;31.20;48.70
58409;DHT22;44202;52.730;6.470;2022-07-23T16:34:52;31.30;48.00
58409;DHT22;44202;52.730;6.470;2022-07-23T16:37:17;31.20;49.10
58409;DHT22;44202;52.730;6.470;2022-07-23T16:39:43;31.30;49.80
58409;DHT22;44202;52.730;6.470;2022-07-23T16:42:09;31.40;48.60
58409;DHT22;44202;52.730;6.470;2022-07-23T16:44:34;31.40;49.10
58409;DHT22;44202;52.730;6.470;2022-07-23T16:47:00;31.50;48.80
58409;DHT22;44202;52.730;6.470;2022-07-23T16:49:26;31.50;47.50
58409;DHT22;44202;52.730;6.470;2022-07-23T16:51:52;31.60;47.80
58409;DHT22;44202;52.730;6.470;2022-07-23T16:54:17;31.60;47.20
58409;DHT22;44202;52.730;6.470;2022-07-23T16:56:43;31.30;47.50
58409;DHT22;44202;52.730;6.470;2022-07-23T16:59:09;31.20;48.50
58409;DHT22;44202;52.730;6.470;2022-07-23T17:01:35;31.10;48.70
58409;DHT22;44202;52.730;6.470;2022-07-23T17:04:01;31.00;49.00
58409;DHT22;44202;52.730;6.470;2022-07-23T17:06:27;30.90;48.70
58409;DHT22;44202;52.730;6.470;2022-07-23T17:08:52;30.70;48.80
58409;DHT22;44202;52.730;6.470;2022-07-23T17:11:18;30.40;48.40
58409;DHT22;44202;52.730;6.470;2022-07-23T17:13:44;30.30;48.50
58409;DHT22;44202;52.730;6.470;2022-07-23T17:16:09;30.20;49.50
58409;DHT22;44202;52.730;6.470;2022-07-23T17:18:36;30.00;50.30
58409;DHT22;44202;52.730;6.470;2022-07-23T17:21:02;29.80;50.10
58409;DHT22;44202;52.730;6.470;2022-07-23T17:23:29;29.70;51.10
58409;DHT22;44202;52.730;6.470;2022-07-23T17:25:54;29.50;50.50
58409;DHT22;44202;52.730;6.470;2022-07-23T17:28:20;29.30;50.50
58409;DHT22;44202;52.730;6.470;2022-07-23T17:30:46;29.10;51.10
58409;DHT22;44202;52.730;6.470;2022-07-23T17:33:11;28.80;52.10
58409;DHT22;44202;52.730;6.470;2022-07-23T17:35:37;28.60;53.90
58409;DHT22;44202;52.730;6.470;2022-07-23T17:38:04;28.40;54.50
58409;DHT22;44202;52.730;6.470;2022-07-23T17:40:30;28.50;53.40
58409;DHT22;44202;52.730;6.470;2022-07-23T17:42:56;28.60;51.80
58409;DHT22;44202;52.730;6.470;2022-07-23T17:45:22;28.60;51.80
58409;DHT22;44202;52.730;6.470;2022-07-23T17:47:48;28.50;52.20
58409;DHT22;44202;52.730;6.470;2022-07-23T17:50:15;28.30;52.70
58409;DHT22;44202;52.730;6.470;2022-07-23T17:55:14;27.80;53.20
58409;DHT22;44202;52.730;6.470;2022-07-23T17:57:40;27.10;54.80
58409;DHT22;44202;52.730;6.470;2022-07-23T18:00:07;26.40;56.70
58409;DHT22;44202;52.730;6.470;2022-07-23T18:02:34;25.70;59.20
58409;DHT22;44202;52.730;6.470;2022-07-23T18:05:00;25.30;63.40
58409;DHT22;44202;52.730;6.470;2022-07-23T18:07:44;24.90;69.10
58409;DHT22;44202;52.730;6.470;2022-07-23T18:10:10;24.50;72.70
58409;DHT22;44202;52.730;6.470;2022-07-23T18:12:37;24.20;79.70
58409;DHT22;44202;52.730;6.470;2022-07-23T18:15:04;23.90;79.80
58409;DHT22;44202;52.730;6.470;2022-07-23T18:17:30;23.70;77.30
58409;DHT22;44202;52.730;6.470;2022-07-23T18:19:56;23.50;83.90
58409;DHT22;44202;52.730;6.470;2022-07-23T18:22:21;23.40;88.20
58409;DHT22;44202;52.730;6.470;2022-07-23T18:24:47;23.20;94.00
58409;DHT22;44202;52.730;6.470;2022-07-23T18:27:13;23.10;93.60
58409;DHT22;44202;52.730;6.470;2022-07-23T18:29:39;22.90;93.20
58409;DHT22;44202;52.730;6.470;2022-07-23T18:32:04;22.70;97.70
58409;DHT22;44202;52.730;6.470;2022-07-23T18:34:30;22.50;99.90
58409;DHT22;44202;52.730;6.470;2022-07-23T18:36:56;22.30;99.90
58409;DHT22;44202;52.730;6.470;2022-07-23T18:39:22;22.10;99.90
58409;DHT22;44202;52.730;6.470;2022-07-23T18:41:48;22.00;99.90
58409;DHT22;44202;52.730;6.470;2022-07-23T18:44:15;21.80;99.90
58409;DHT22;44202;52.730;6.470;2022-07-23T18:46:41;21.60;99.90
58409;DHT22;44202;52.730;6.470;2022-07-23T18:49:07;21.50;99.90
58409;DHT22;44202;52.730;6.470;2022-07-23T18:51:33;21.40;99.90
58409;DHT22;44202;52.730;6.470;2022-07-23T18:53:59;21.30;99.90
58409;DHT22;44202;52.730;6.470;2022-07-23T18:56:25;21.20;99.90
58409;DHT22;44202;52.730;6.470;2022-07-23T18:58:51;21.00;99.90
58409;DHT22;44202;52.730;6.470;2022-07-23T19:01:16;20.90;99.90
58409;DHT22;44202;52.730;6.470;2022-07-23T19:03:42;20.80;99.90
58409;DHT22;44202;52.730;6.470;2022-07-23T19:06:08;20.70;99.90
58409;DHT22;44202;52.730;6.470;2022-07-23T19:08:34;20.60;99.90
58409;DHT22;44202;52.730;6.470;2022-07-23T19:11:00;20.50;99.90
58409;DHT22;44202;52.730;6.470;2022-07-23T19:13:26;20.30;99.90
58409;DHT22;44202;52.730;6.470;2022-07-23T19:15:52;20.20;99.90
58409;DHT22;44202;52.730;6.470;2022-07-23T19:18:18;20.20;99.90
58409;DHT22;44202;52.730;6.470;2022-07-23T19:20:44;20.00;99.90
58409;DHT22;44202;52.730;6.470;2022-07-23T19:23:11;19.90;99.90
58409;DHT22;44202;52.730;6.470;2022-07-23T19:25:37;19.90;99.90
58409;DHT22;44202;52.730;6.470;2022-07-23T19:28:03;19.70;99.90
58409;DHT22;44202;52.730;6.470;2022-07-23T19:30:29;19.60;99.90
58409;DHT22;44202;52.730;6.470;2022-07-23T19:32:54;19.60;99.90
58409;DHT22;44202;52.730;6.470;2022-07-23T19:35:20;19.60;99.90
58409;DHT22;44202;52.730;6.470;2022-07-23T19:37:46;19.60;99.90
58409;DHT22;44202;52.730;6.470;2022-07-23T19:40:11;19.50;99.90
58409;DHT22;44202;52.730;6.470;2022-07-23T19:42:38;19.50;99.90
58409;DHT22;44202;52.730;6.470;2022-07-23T19:45:05;19.40;99.90
58409;DHT22;44202;52.730;6.470;2022-07-23T19:47:31;19.40;99.90
58409;DHT22;44202;52.730;6.470;2022-07-23T19:49:57;19.30;99.90
58409;DHT22;44202;52.730;6.470;2022-07-23T19:52:24;19.30;99.90
58409;DHT22;44202;52.730;6.470;2022-07-23T19:54:50;19.20;99.90
58409;DHT22;44202;52.730;6.470;2022-07-23T19:57:15;19.20;99.90
58409;DHT22;44202;52.730;6.470;2022-07-23T19:59:41;19.00;99.90
58409;DHT22;44202;52.730;6.470;2022-07-23T20:02:07;19.00;99.90
58409;DHT22;44202;52.730;6.470;2022-07-23T20:04:33;18.90;99.90
58409;DHT22;44202;52.730;6.470;2022-07-23T20:06:58;18.90;99.90
58409;DHT22;44202;52.730;6.470;2022-07-23T20:09:24;18.80;99.90
58409;DHT22;44202;52.730;6.470;2022-07-23T20:11:50;18.70;99.90
58409;DHT22;44202;52.730;6.470;2022-07-23T20:14:15;18.70;99.90
58409;DHT22;44202;52.730;6.470;2022-07-23T20:16:41;18.60;99.90
58409;DHT22;44202;52.730;6.470;2022-07-23T20:19:07;18.50;99.90
58409;DHT22;44202;52.730;6.470;2022-07-23T20:21:33;18.50;99.90
58409;DHT22;44202;52.730;6.470;2022-07-23T20:23:58;18.40;99.90
58409;DHT22;44202;52.730;6.470;2022-07-23T20:26:24;18.30;99.90
58409;DHT22;44202;52.730;6.470;2022-07-23T20:28:50;18.30;99.90
58409;DHT22;44202;52.730;6.470;2022-07-23T20:31:16;18.20;99.90
58409;DHT22;44202;52.730;6.470;2022-07-23T20:33:41;18.20;99.90
58409;DHT22;44202;52.730;6.470;2022-07-23T20:36:07;18.20;99.90
58409;DHT22;44202;52.730;6.470;2022-07-23T20:38:33;18.10;99.90
58409;DHT22;44202;52.730;6.470;2022-07-23T20:40:59;18.10;99.90
58409;DHT22;44202;52.730;6.470;2022-07-23T20:43:25;18.10;99.90
58409;DHT22;44202;52.730;6.470;2022-07-23T20:45:51;18.00;99.90
58409;DHT22;44202;52.730;6.470;2022-07-23T20:48:17;18.10;99.90
58409;DHT22;44202;52.730;6.470;2022-07-23T20:50:43;18.10;99.90
58409;DHT22;44202;52.730;6.470;2022-07-23T20:53:10;18.10;99.90
58409;DHT22;44202;52.730;6.470;2022-07-23T20:55:36;18.00;99.90
58409;DHT22;44202;52.730;6.470;2022-07-23T20:58:03;18.00;99.90
58409;DHT22;44202;52.730;6.470;2022-07-23T21:00:29;18.00;99.90
58409;DHT22;44202;52.730;6.470;2022-07-23T21:02:54;18.10;99.90
58409;DHT22;44202;52.730;6.470;2022-07-23T21:05:20;18.00;99.90
58409;DHT22;44202;52.730;6.470;2022-07-23T21:07:46;18.00;99.90
58409;DHT22;44202;52.730;6.470;2022-07-23T21:10:12;18.00;99.90
58409;DHT22;44202;52.730;6.470;2022-07-23T21:12:37;18.00;99.90
58409;DHT22;44202;52.730;6.470;2022-07-23T21:15:05;18.00;99.90
58409;DHT22;44202;52.730;6.470;2022-07-23T21:17:30;18.00;99.90
58409;DHT22;44202;52.730;6.470;2022-07-23T21:19:56;18.00;99.90
58409;DHT22;44202;52.730;6.470;2022-07-23T21:22:22;18.00;99.90
58409;DHT22;44202;52.730;6.470;2022-07-23T21:24:47;17.90;99.90
58409;DHT22;44202;52.730;6.470;2022-07-23T21:27:13;17.80;99.90
58409;DHT22;44202;52.730;6.470;2022-07-23T21:29:40;17.70;99.90
58409;DHT22;44202;52.730;6.470;2022-07-23T21:32:07;17.70;99.90
58409;DHT22;44202;52.730;6.470;2022-07-23T21:34:32;17.60;99.90
58409;DHT22;44202;52.730;6.470;2022-07-23T21:36:58;17.70;99.90
58409;DHT22;44202;52.730;6.470;2022-07-23T21:39:24;17.60;99.90
58409;DHT22;44202;52.730;6.470;2022-07-23T21:41:49;17.60;99.90
58409;DHT22;44202;52.730;6.470;2022-07-23T21:44:15;17.50;99.90
58409;DHT22;44202;52.730;6.470;2022-07-23T21:46:41;17.50;99.90
58409;DHT22;44202;52.730;6.470;2022-07-23T21:49:07;17.40;99.90
58409;DHT22;44202;52.730;6.470;2022-07-23T21:51:34;17.50;99.90
58409;DHT22;44202;52.730;6.470;2022-07-23T21:54:00;17.40;99.90
58409;DHT22;44202;52.730;6.470;2022-07-23T21:56:26;17.30;99.90
58409;DHT22;44202;52.730;6.470;2022-07-23T21:58:51;17.30;99.90
58409;DHT22;44202;52.730;6.470;2022-07-23T22:01:17;17.30;99.90
58409;DHT22;44202;52.730;6.470;2022-07-23T22:03:43;17.20;99.90
58409;DHT22;44202;52.730;6.470;2022-07-23T22:06:08;17.20;99.90
58409;DHT22;44202;52.730;6.470;2022-07-23T22:08:35;17.10;99.90
58409;DHT22;44202;52.730;6.470;2022-07-23T22:11:01;17.10;99.90
58409;DHT22;44202;52.730;6.470;2022-07-23T22:13:28;17.00;99.90
58409;DHT22;44202;52.730;6.470;2022-07-23T22:15:53;17.20;99.90
58409;DHT22;44202;52.730;6.470;2022-07-23T22:18:19;17.10;99.90
58409;DHT22;44202;52.730;6.470;2022-07-23T22:20:45;17.20;99.90
58409;DHT22;44202;52.730;6.470;2022-07-23T22:23:11;17.20;99.90
58409;DHT22;44202;52.730;6.470;2022-07-23T22:25:36;17.20;99.90
58409;DHT22;44202;52.730;6.470;2022-07-23T22:28:03;17.20;99.90
58409;DHT22;44202;52.730;6.470;2022-07-23T22:30:29;17.20;99.90
58409;DHT22;44202;52.730;6.470;2022-07-23T22:32:56;17.10;99.90
58409;DHT22;44202;52.730;6.470;2022-07-23T22:35:22;17.20;99.90
58409;DHT22;44202;52.730;6.470;2022-07-23T22:37:48;17.10;99.90
58409;DHT22;44202;52.730;6.470;2022-07-23T22:40:14;17.10;99.90
58409;DHT22;44202;52.730;6.470;2022-07-23T22:42:41;17.10;99.90
58409;DHT22;44202;52.730;6.470;2022-07-23T22:45:07;16.90;99.90
58409;DHT22;44202;52.730;6.470;2022-07-23T22:47:33;17.00;99.90
58409;DHT22;44202;52.730;6.470;2022-07-23T22:49:59;16.90;99.90
58409;DHT22;44202;52.730;6.470;2022-07-23T22:52:24;16.90;99.90
58409;DHT22;44202;52.730;6.470;2022-07-23T22:54:50;16.80;99.90
58409;DHT22;44202;52.730;6.470;2022-07-23T22:57:16;16.80;99.90
58409;DHT22;44202;52.730;6.470;2022-07-23T22:59:42;16.80;99.90
58409;DHT22;44202;52.730;6.470;2022-07-23T23:02:07;16.90;99.90
58409;DHT22;44202;52.730;6.470;2022-07-23T23:04:33;16.80;99.90
58409;DHT22;44202;52.730;6.470;2022-07-23T23:06:59;16.80;99.90
58409;DHT22;44202;52.730;6.470;2022-07-23T23:09:25;16.90;99.90
58409;DHT22;44202;52.730;6.470;2022-07-23T23:11:50;16.80;99.90
58409;DHT22;44202;52.730;6.470;2022-07-23T23:14:16;16.80;99.90
58409;DHT22;44202;52.730;6.470;2022-07-23T23:16:42;16.90;99.90
58409;DHT22;44202;52.730;6.470;2022-07-23T23:19:08;16.80;99.90
58409;DHT22;44202;52.730;6.470;2022-07-23T23:21:33;16.80;99.90
58409;DHT22;44202;52.730;6.470;2022-07-23T23:23:59;16.80;99.90
58409;DHT22;44202;52.730;6.470;2022-07-23T23:26:25;16.80;99.90
58409;DHT22;44202;52.730;6.470;2022-07-23T23:28:50;16.80;99.90
58409;DHT22;44202;52.730;6.470;2022-07-23T23:31:16;16.80;99.90
58409;DHT22;44202;52.730;6.470;2022-07-23T23:33:42;16.70;99.90
58409;DHT22;44202;52.730;6.470;2022-07-23T23:36:08;16.70;99.90
58409;DHT22;44202;52.730;6.470;2022-07-23T23:38:33;16.70;99.90
58409;DHT22;44202;52.730;6.470;2022-07-23T23:41:07;16.70;99.90
58409;DHT22;44202;52.730;6.470;2022-07-23T23:43:33;16.60;99.90
58409;DHT22;44202;52.730;6.470;2022-07-23T23:45:58;16.60;99.90
58409;DHT22;44202;52.730;6.470;2022-07-23T23:48:24;16.60;99.90
58409;DHT22;44202;52.730;6.470;2022-07-23T23:50:49;16.60;99.90
58409;DHT22;44202;52.730;6.470;2022-07-23T23:53:15;16.60;99.90
58409;DHT22;44202;52.730;6.470;2022-07-23T23:55:41;16.60;99.90
58409;DHT22;44202;52.730;6.470;2022-07-23T23:58:06;16.60;99.90
